Time;durP1;ratioP1;P1;durP2;ratioP2;P2;SDS_P1;SDS_P2;PMS_P1;PMS_P2;Temp;Humidity;BMP_temperature;BMP_pressure;BME280_temperature;BME280_humidity;BME280_pressure;Samples;Min_cycle;Max_cycle;Signal;HPM_P1;HPM_P2
2021/01/03 00:01:27;;;;;;;14.25;7.10;;;;;;;8.27;73.97;101681.95;1790032;80;21090;-66
2021/01/03 00:03:54;;;;;;;13.22;7.20;;;;;;;8.19;74.22;101679.16;1772317;80;21549;-65
2021/01/03 00:06:22;;;;;;;17.82;6.47;;;;;;;8.19;74.55;101682.68;1759395;81;21142;-66
2021/01/03 00:08:50;;;;;;;18.52;6.42;;;;;;;8.23;74.69;101680.12;1773242;80;21114;-65
2021/01/03 00:11:18;;;;;;;26.15;6.67;;;;;;;8.29;74.73;101677.17;1774600;80;21178;-65
2021/01/03 00:13:45;;;;;;;42.45;6.28;;;;;;;8.37;74.79;101677.33;1764950;80;21543;-65
2021/01/03 00:16:13;;;;;;;39.75;6.28;;;;;;;8.45;75.34;101684.01;1759128;80;21178;-66
2021/01/03 00:18:40;;;;;;;25.27;5.28;;;;;;;8.46;76.19;101685.78;1767931;80;21570;-65
2021/01/03 00:21:11;;;;;;;26.60;5.60;;;;;;;8.54;76.26;101679.38;1773744;80;21179;-65
2021/01/03 00:23:40;;;;;;;30.60;6.72;;;;;;;8.61;76.46;101679.94;1759323;81;21617;-65
2021/01/03 00:26:08;;;;;;;20.17;5.95;;;;;;;8.67;76.45;101678.73;1759545;80;21170;-65
2021/01/03 00:28:35;;;;;;;21.90;5.80;;;;;;;8.68;76.94;101679.59;1788479;80;21130;-65
2021/01/03 00:31:03;;;;;;;27.37;5.83;;;;;;;8.75;76.91;101688.93;1772219;80;21154;-65
2021/01/03 00:33:31;;;;;;;27.62;6.03;;;;;;;8.90;76.49;101685.66;1757046;82;21593;-66
2021/01/03 00:35:58;;;;;;;25.55;6.65;;;;;;;9.04;75.87;101678.44;1767805;80;21569;-65
2021/01/03 00:38:26;;;;;;;24.65;7.42;;;;;;;9.10;75.66;101680.25;1783901;80;21138;-65
2021/01/03 00:40:54;;;;;;;18.82;9.25;;;;;;;9.11;75.59;101679.39;1763915;80;21590;-65
2021/01/03 00:43:21;;;;;;;18.77;8.63;;;;;;;9.05;75.78;101678.44;1756950;81;21475;-65
2021/01/03 00:45:50;;;;;;;19.25;9.95;;;;;;;9.12;75.52;101682.48;1775200;80;21176;-65
2021/01/03 00:48:17;;;;;;;15.98;10.32;;;;;;;9.14;75.44;101684.25;1777932;79;21126;-66
2021/01/03 00:50:45;;;;;;;16.32;10.25;;;;;;;9.19;75.35;101682.58;1784410;80;21191;-65
2021/01/03 00:53:13;;;;;;;18.92;11.93;;;;;;;9.18;75.30;101678.19;1787920;80;21167;-65
2021/01/03 00:55:40;;;;;;;15.23;11.18;;;;;;;9.19;75.13;101681.70;1787993;80;21608;-66
2021/01/03 00:58:08;;;;;;;18.07;11.30;;;;;;;9.07;75.21;101678.03;1783849;80;21122;-65
2021/01/03 01:00:36;;;;;;;17.67;11.78;;;;;;;9.02;75.29;101678.39;1787886;80;21542;-65
2021/01/03 01:03:04;;;;;;;34.92;12.47;;;;;;;9.01;74.96;101677.07;1787924;80;21174;-66
2021/01/03 01:05:32;;;;;;;27.65;11.12;;;;;;;9.00;74.62;101678.80;1787601;80;21605;-66
2021/01/03 01:07:59;;;;;;;23.45;11.63;;;;;;;8.98;74.41;101671.77;1781873;80;21130;-65
2021/01/03 01:10:29;;;;;;;35.88;12.33;;;;;;;8.92;74.24;101670.81;1787945;80;21163;-65
2021/01/03 01:13:00;;;;;;;44.80;11.18;;;;;;;8.84;74.28;101670.22;1787929;80;21172;-66
2021/01/03 01:15:30;;;;;;;47.73;11.05;;;;;;;8.78;74.18;101670.61;1785876;79;21593;-65
2021/01/03 01:18:01;;;;;;;38.33;10.80;;;;;;;8.69;74.11;101671.77;1783889;80;21170;-65
2021/01/03 01:20:31;;;;;;;14.93;9.33;;;;;;;8.65;73.96;101662.07;1788251;80;21179;-66
2021/01/03 01:22:58;;;;;;;20.68;9.50;;;;;;;8.61;73.97;101662.43;1788458;80;21166;-66
2021/01/03 01:25:29;;;;;;;31.82;8.45;;;;;;;8.60;73.62;101666.36;1783150;80;21110;-65
2021/01/03 01:27:57;;;;;;;;;;;;;;;8.55;73.33;101666.30;1790970;80;21158;-66
2021/01/03 01:30:27;;;;;;;18.95;7.55;;;;;;;8.46;73.34;101657.78;1785573;80;20234;-66
2021/01/03 01:32:54;;;;;;;28.57;8.20;;;;;;;8.41;73.19;101653.33;1784282;80;21146;-65
2021/01/03 01:35:26;;;;;;;20.08;7.65;;;;;;;8.34;73.05;101660.22;1779371;80;21127;-65
2021/01/03 01:37:53;;;;;;;27.45;8.33;;;;;;;8.24;73.15;101657.84;1784474;80;21598;-66
2021/01/03 01:40:25;;;;;;;19.42;8.05;;;;;;;8.18;72.99;101657.72;1784370;79;21172;-66
2021/01/03 01:42:53;;;;;;;24.35;7.60;;;;;;;8.09;72.92;101659.76;1781067;79;21202;-66
2021/01/03 01:45:28;;;;;;;18.80;7.35;;;;;;;8.04;72.95;101661.41;1750335;80;21150;-65
2021/01/03 01:48:01;;;;;;;68.22;8.20;;;;;;;7.99;72.94;101657.81;1780618;80;21284;-66
2021/01/03 01:50:50;;;;;;;47.03;8.03;;;;;;;7.93;72.97;101652.03;1779658;81;21191;-65
2021/01/03 01:53:29;;;;;;;31.02;7.40;;;;;;;7.85;73.35;101653.20;1777052;80;21095;-65
2021/01/03 01:56:02;;;;;;;25.48;7.40;;;;;;;7.85;73.47;101649.28;1765901;80;21297;-65
2021/01/03 01:58:47;;;;;;;17.37;7.62;;;;;;;7.85;73.47;101649.69;1779557;81;21170;-65
2021/01/03 02:01:23;;;;;;;16.57;7.83;;;;;;;7.88;73.43;101647.13;1778669;79;21103;-66
2021/01/03 02:04:12;;;;;;;30.68;8.78;;;;;;;7.83;73.29;101642.22;1753984;80;21158;-65
2021/01/03 02:06:49;;;;;;;28.87;8.70;;;;;;;7.71;73.35;101638.94;1831853;77;22641;-64
2021/01/03 02:09:21;;;;;;;17.02;8.20;;;;;;;7.61;73.55;101639.60;1787347;80;21162;-65
2021/01/03 02:11:48;;;;;;;34.60;8.53;;;;;;;7.56;73.67;101642.14;1754133;80;21107;-65
2021/01/03 02:14:15;;;;;;;31.25;9.40;;;;;;;7.55;73.69;101646.48;1762462;80;21098;-65
2021/01/03 02:16:43;;;;;;;30.82;8.75;;;;;;;7.58;73.68;101639.99;1728438;83;21656;-65
2021/01/03 02:19:16;;;;;;;26.42;9.13;;;;;;;7.57;73.83;101645.22;1730600;80;21174;-66
2021/01/03 02:22:07;;;;;;;21.25;8.83;;;;;;;7.61;73.87;101637.88;1753329;81;21174;-65
2021/01/03 02:24:57;;;;;;;21.15;8.45;;;;;;;7.65;73.88;101633.57;1719092;83;21155;-66
2021/01/03 02:27:47;;;;;;;48.40;9.08;;;;;;;7.65;73.92;101634.88;1703491;84;21187;-64
2021/01/03 02:30:16;;;;;;;34.73;9.93;;;;;;;7.61;74.14;101633.05;1722964;81;21178;-64
2021/01/03 02:32:47;;;;;;;36.13;9.30;;;;;;;7.62;74.19;101637.44;1703834;83;21183;-65
2021/01/03 02:35:16;;;;;;;20.97;8.58;;;;;;;7.66;74.11;101637.55;1702940;83;21653;-65
2021/01/03 02:37:46;;;;;;;16.90;7.42;;;;;;;7.64;74.24;101633.11;1706682;81;21150;-65
2021/01/03 02:40:18;;;;;;;;;;;;;;;7.57;74.61;101626.44;1720652;83;21194;-65
2021/01/03 02:42:45;;;;;;;;;;;;;;;7.62;74.54;101634.41;1706397;83;20454;-65
2021/01/03 02:45:18;;;;;;;25.55;8.70;;;;;;;7.68;74.50;101624.46;1732097;83;20163;-65
2021/01/03 02:47:46;;;;;;;21.62;8.35;;;;;;;7.71;74.47;101629.77;1732093;83;21107;-65
2021/01/03 02:50:18;;;;;;;20.23;8.90;;;;;;;7.74;74.56;101628.52;1708514;83;21223;-66
2021/01/03 02:52:45;;;;;;;18.30;9.13;;;;;;;7.74;74.87;101629.83;1702836;83;21155;-65
2021/01/03 02:55:14;;;;;;;23.35;8.83;;;;;;;7.84;74.85;101633.09;1702960;84;21298;-66
2021/01/03 02:57:43;;;;;;;18.57;9.10;;;;;;;7.86;74.98;101631.38;1728269;81;21178;-65
2021/01/03 03:00:15;;;;;;;19.40;8.08;;;;;;;7.95;75.14;101628.05;1703107;84;21175;-65
2021/01/03 03:02:43;;;;;;;39.92;9.58;;;;;;;8.01;75.29;101625.54;1728976;81;21148;-66
2021/01/03 03:05:13;;;;;;;30.00;10.80;;;;;;;8.10;75.28;101635.74;1735408;81;21463;-65
2021/01/03 03:07:40;;;;;;;35.83;10.80;;;;;;;8.18;75.46;101630.18;1767828;80;21261;-65
2021/01/03 03:10:09;;;;;;;18.52;10.05;;;;;;;8.11;75.89;101623.09;1787670;80;21179;-66
2021/01/03 03:12:37;;;;;;;21.23;10.18;;;;;;;8.31;75.60;101627.38;1756903;82;21872;-66
2021/01/03 03:15:11;;;;;;;19.70;13.20;;;;;;;8.39;75.49;101620.93;1772533;79;21150;-65
2021/01/03 03:17:38;;;;;;;15.25;11.53;;;;;;;8.47;75.72;101624.13;1772131;80;21135;-65
2021/01/03 03:20:10;;;;;;;17.35;12.00;;;;;;;8.59;75.67;101614.73;1769027;81;21163;-65
2021/01/03 03:22:37;;;;;;;;;;;;;;;8.68;75.75;101616.19;1763017;80;21163;-65
2021/01/03 03:25:06;;;;;;;20.50;13.40;;;;;;;8.78;75.77;101616.78;1777624;80;20163;-65
2021/01/03 03:27:34;;;;;;;16.77;12.90;;;;;;;8.85;75.89;101609.87;1769387;81;21167;-66
2021/01/03 03:30:05;;;;;;;13.75;10.45;;;;;;;8.89;75.89;101609.06;1764688;80;21179;-65
2021/01/03 03:32:32;;;;;;;;;;;;;;;8.93;75.82;101612.19;1764473;79;21163;-65
2021/01/03 03:35:00;;;;;;;16.30;11.03;;;;;;;9.02;75.64;101610.56;1774834;80;20189;-66
2021/01/03 03:37:28;;;;;;;16.02;10.90;;;;;;;9.02;75.63;101611.42;1756194;81;22314;-66
2021/01/03 03:39:55;;;;;;;16.00;10.65;;;;;;;9.05;75.54;101610.16;1756295;80;21628;-65
2021/01/03 03:42:23;;;;;;;13.93;10.08;;;;;;;9.06;75.42;101609.70;1775692;80;21115;-65
2021/01/03 03:44:50;;;;;;;14.73;10.28;;;;;;;8.98;75.52;101611.38;1764414;80;21637;-65
2021/01/03 03:47:18;;;;;;;18.67;10.63;;;;;;;9.01;75.39;101610.97;1756186;82;21190;-65
2021/01/03 03:49:45;;;;;;;16.60;10.43;;;;;;;8.98;75.31;101617.48;1756312;80;21158;-65
2021/01/03 03:52:12;;;;;;;17.30;11.00;;;;;;;8.85;75.58;101623.41;1761745;79;21139;-65
2021/01/03 03:54:42;;;;;;;17.55;10.93;;;;;;;8.79;75.74;101621.59;1750235;82;21527;-65
2021/01/03 03:57:10;;;;;;;13.85;10.32;;;;;;;8.79;75.68;101628.16;1721602;82;21155;-66
2021/01/03 03:59:38;;;;;;;14.43;10.08;;;;;;;8.84;75.58;101630.84;1766133;79;21139;-67
2021/01/03 04:02:06;;;;;;;14.38;11.08;;;;;;;8.88;75.26;101633.55;1779942;80;21123;-66
2021/01/03 04:04:34;;;;;;;18.62;11.60;;;;;;;8.89;75.23;101635.73;1769501;81;21190;-67
2021/01/03 04:07:01;;;;;;;15.68;11.57;;;;;;;8.89;75.23;101631.38;1768160;80;21711;-66
2021/01/03 04:09:29;;;;;;;15.10;11.50;;;;;;;8.84;75.26;101630.42;1762786;79;21649;-65
2021/01/03 04:11:56;;;;;;;15.15;10.35;;;;;;;8.79;75.37;101630.78;1750087;80;21151;-66
2021/01/03 04:14:25;;;;;;;19.92;12.15;;;;;;;8.80;75.25;101631.23;1749754;82;21116;-66
2021/01/03 04:16:57;;;;;;;16.05;11.45;;;;;;;8.77;75.22;101631.19;1750085;82;21186;-65
2021/01/03 04:19:25;;;;;;;16.37;11.25;;;;;;;8.72;75.04;101627.60;1782072;79;21158;-65
2021/01/03 04:21:54;;;;;;;15.50;10.18;;;;;;;8.68;74.89;101625.78;1755437;80;21178;-65
2021/01/03 04:24:22;;;;;;;19.82;11.35;;;;;;;8.60;74.87;101626.99;1756383;82;21158;-67
2021/01/03 04:26:56;;;;;;;15.53;10.75;;;;;;;8.54;74.80;101629.09;1758118;80;21114;-67
2021/01/03 04:29:24;;;;;;;15.70;10.70;;;;;;;8.50;74.85;101634.25;1774675;80;21166;-66
2021/01/03 04:31:59;;;;;;;18.23;11.63;;;;;;;8.45;74.97;101635.47;1749730;82;21175;-65
2021/01/03 04:34:27;;;;;;;16.60;10.80;;;;;;;8.42;75.12;101632.34;1750020;82;21504;-65
2021/01/03 04:36:57;;;;;;;18.95;11.70;;;;;;;8.43;75.13;101634.11;1756524;80;21190;-67
2021/01/03 04:39:25;;;;;;;19.67;11.03;;;;;;;8.41;75.15;101633.20;1752699;80;21171;-65
2021/01/03 04:42:05;;;;;;;15.80;11.28;;;;;;;8.41;75.19;101627.95;1749928;82;21610;-66
2021/01/03 04:44:49;;;;;;;14.18;10.50;;;;;;;8.44;75.17;101628.45;1749618;82;21135;-65
2021/01/03 04:47:33;;;;;;;13.70;10.18;;;;;;;8.43;74.99;101625.38;1775614;80;21139;-65
2021/01/03 04:50:28;;;;;;;20.40;11.03;;;;;;;8.40;74.97;101626.19;1748860;82;21297;-66
2021/01/03 04:53:36;;;;;;;18.92;10.13;;;;;;;8.37;74.93;101623.95;1749908;82;21563;-66
2021/01/03 04:56:22;;;;;;;22.32;10.43;;;;;;;8.33;75.00;101631.77;1761748;80;21156;-68
2021/01/03 04:59:10;;;;;;;15.35;10.72;;;;;;;8.29;75.15;101632.58;1787077;80;21103;-64
2021/01/03 05:02:07;;;;;;;16.37;11.88;;;;;;;8.30;75.15;101629.54;1787135;80;21119;-66
2021/01/03 05:05:04;;;;;;;16.05;11.10;;;;;;;8.30;75.17;101626.47;1786697;80;21626;-66
2021/01/03 05:07:38;;;;;;;19.80;12.85;;;;;;;8.37;75.07;101631.41;1732665;80;21578;-65
2021/01/03 05:10:17;;;;;;;18.30;12.98;;;;;;;8.41;74.98;101631.89;1787183;80;21154;-66
2021/01/03 05:13:02;;;;;;;26.82;13.50;;;;;;;8.46;74.96;101629.36;1780291;80;21135;-65
2021/01/03 05:15:32;;;;;;;20.60;14.13;;;;;;;8.73;74.11;101626.33;1768372;80;21151;-65
2021/01/03 05:18:00;;;;;;;20.77;13.13;;;;;;;8.70;74.27;101627.59;1756596;82;21155;-67
2021/01/03 05:20:31;;;;;;;16.87;13.28;;;;;;;8.71;74.31;101624.11;1756068;81;21377;-67
2021/01/03 05:23:19;;;;;;;20.50;14.43;;;;;;;8.76;74.24;101630.32;1765245;80;21161;-66
2021/01/03 05:25:47;;;;;;;27.20;14.23;;;;;;;8.71;74.43;101629.77;1768709;80;21293;-66
2021/01/03 05:28:33;;;;;;;22.10;13.60;;;;;;;8.71;74.48;101629.36;1769280;81;21606;-67
2021/01/03 05:31:17;;;;;;;20.30;12.82;;;;;;;8.71;74.55;101628.05;1774767;80;21139;-65
2021/01/03 05:33:57;;;;;;;19.82;12.80;;;;;;;8.74;74.54;101638.59;1771159;80;21601;-66
2021/01/03 05:36:44;;;;;;;21.65;12.50;;;;;;;8.74;74.40;101639.91;1768387;80;21336;-65
2021/01/03 05:39:23;;;;;;;18.77;12.95;;;;;;;8.74;74.31;101636.39;1719955;83;21617;-66
2021/01/03 05:42:24;;;;;;;19.65;12.65;;;;;;;8.72;74.29;101640.73;1732198;82;21577;-65
2021/01/03 05:45:10;;;;;;;30.90;12.28;;;;;;;8.71;74.22;101641.59;1768748;80;21194;-65
2021/01/03 05:47:58;;;;;;;19.65;12.20;;;;;;;8.79;74.10;101641.28;1731358;82;21135;-65
2021/01/03 05:50:35;;;;;;;15.75;11.55;;;;;;;8.73;74.42;101643.39;1770654;80;21277;-66
2021/01/03 05:53:23;;;;;;;18.80;12.07;;;;;;;8.58;74.82;101647.97;1765377;80;21109;-67
2021/01/03 05:56:03;;;;;;;22.13;11.60;;;;;;;8.78;74.50;101646.98;1768632;80;21667;-68
2021/01/03 05:58:42;;;;;;;28.50;13.83;;;;;;;8.69;74.81;101649.86;1772147;80;21138;-67
2021/01/03 06:01:32;;;;;;;22.13;10.75;;;;;;;8.76;74.63;101654.36;1763924;80;21773;-68
2021/01/03 06:04:03;;;;;;;21.02;11.25;;;;;;;8.80;74.56;101651.37;1720152;82;21677;-67
2021/01/03 06:06:51;;;;;;;17.65;10.70;;;;;;;8.84;74.24;101648.80;1756163;81;21676;-66
2021/01/03 06:09:34;;;;;;;23.75;12.30;;;;;;;8.83;74.32;101641.78;1746845;82;21632;-67
2021/01/03 06:12:23;;;;;;;20.40;11.93;;;;;;;8.85;74.14;101641.38;1765015;81;21138;-67
2021/01/03 06:14:57;;;;;;;14.65;10.35;;;;;;;8.85;74.09;101639.16;1769845;80;21243;-67
2021/01/03 06:17:33;;;;;;;20.17;10.00;;;;;;;8.83;74.10;101636.98;1776420;79;21605;-66
2021/01/03 06:20:10;;;;;;;12.28;9.10;;;;;;;8.81;74.05;101633.45;1769624;80;21154;-67
2021/01/03 06:22:53;;;;;;;15.10;7.10;;;;;;;8.82;73.89;101641.78;1765732;80;21281;-65
2021/01/03 06:26:03;;;;;;;10.88;7.90;;;;;;;8.79;73.73;101651.78;1766783;80;21299;-67
2021/01/03 06:28:44;;;;;;;10.90;6.53;;;;;;;8.74;73.76;101650.41;1768182;80;21538;-65
2021/01/03 06:31:45;;;;;;;14.10;6.12;;;;;;;8.71;73.63;101649.46;1771727;80;21259;-67
2021/01/03 06:34:23;;;;;;;15.43;6.47;;;;;;;8.66;73.78;101659.90;1764761;80;21159;-67
2021/01/03 06:37:05;;;;;;;22.30;6.50;;;;;;;8.65;73.67;101654.61;1769309;80;21145;-65
2021/01/03 06:39:59;;;;;;;14.40;5.97;;;;;;;8.55;73.40;101658.42;1765260;80;21158;-66
2021/01/03 06:43:17;;;;;;;11.80;5.35;;;;;;;8.53;73.60;101652.67;1786974;80;21602;-68
2021/01/03 06:46:34;;;;;;;10.28;6.05;;;;;;;8.53;73.69;101648.73;1777562;80;21164;-67
2021/01/03 06:49:48;;;;;;;8.88;5.75;;;;;;;8.54;73.66;101644.84;1773817;81;21167;-66
2021/01/03 06:52:45;;;;;;;11.20;5.42;;;;;;;8.54;73.60;101650.09;1770506;80;21147;-65
2021/01/03 06:55:33;;;;;;;13.78;5.55;;;;;;;8.53;73.40;101655.30;1725355;83;21152;-67
2021/01/03 06:58:38;;;;;;;13.65;5.47;;;;;;;8.47;73.37;101651.67;1723040;83;21158;-66
2021/01/03 07:01:35;;;;;;;11.18;5.35;;;;;;;8.52;73.36;101646.97;1820672;77;22213;-65
2021/01/03 07:04:10;;;;;;;7.22;5.25;;;;;;;8.42;73.36;101642.84;1784887;80;21132;-68
2021/01/03 07:06:39;;;;;;;10.08;5.55;;;;;;;8.37;73.53;101644.53;1781965;80;21110;-67
2021/01/03 07:09:10;;;;;;;5.90;5.17;;;;;;;8.36;73.46;101645.39;1791965;80;21150;-69
2021/01/03 07:11:50;;;;;;;10.30;5.17;;;;;;;8.36;73.53;101649.73;1797158;78;21138;-69
2021/01/03 07:14:26;;;;;;;7.25;5.50;;;;;;;8.36;73.62;101657.61;1795221;80;21187;-65
2021/01/03 07:17:00;;;;;;;10.28;4.92;;;;;;;8.33;73.65;101665.88;1795557;80;21580;-67
2021/01/03 07:27:44;;;;;;;5.67;4.45;;;;;;;8.43;73.56;101647.67;1821019;77;22462;-65
2021/01/03 07:30:18;;;;;;;7.03;4.80;;;;;;;8.41;73.60;101646.32;1725434;83;21719;-64
2021/01/03 07:32:58;;;;;;;8.05;3.77;;;;;;;8.45;73.43;101650.77;1701546;84;21178;-67
2021/01/03 07:35:37;;;;;;;6.90;4.42;;;;;;;8.42;73.57;101649.40;1713253;82;21154;-65
2021/01/03 07:38:24;;;;;;;6.28;4.25;;;;;;;8.44;73.54;101645.06;1746341;80;21182;-66
2021/01/03 07:41:06;;;;;;;5.20;4.37;;;;;;;8.44;73.50;101650.31;1748546;81;21170;-65
2021/01/03 07:43:56;;;;;;;4.87;4.05;;;;;;;8.41;73.63;101650.70;1749338;82;21182;-65
2021/01/03 07:46:48;;;;;;;5.33;4.45;;;;;;;8.43;73.43;101650.30;1749591;82;21676;-67
2021/01/03 07:49:36;;;;;;;4.92;3.20;;;;;;;8.40;73.63;101648.94;1745510;80;21134;-66
2021/01/03 07:52:21;;;;;;;6.00;4.37;;;;;;;8.41;73.62;101652.02;1748386;82;21605;-66
2021/01/03 07:54:54;;;;;;;6.25;3.98;;;;;;;8.41;73.44;101650.70;1740379;82;21122;-67
2021/01/03 07:57:26;;;;;;;7.15;4.33;;;;;;;8.41;73.30;101646.32;1728756;82;21127;-66
2021/01/03 07:59:55;;;;;;;8.70;4.60;;;;;;;8.37;73.59;101646.25;1734120;81;21256;-68
2021/01/03 08:02:30;;;;;;;7.35;4.37;;;;;;;8.37;73.43;101644.94;1749468;82;21154;-68
2021/01/03 08:05:00;;;;;;;6.08;3.27;;;;;;;8.34;73.49;101653.22;1743391;81;21137;-67
2021/01/03 08:07:29;;;;;;;5.40;4.15;;;;;;;8.31;73.46;101661.47;1742625;82;21139;-65
2021/01/03 08:10:06;;;;;;;5.55;4.42;;;;;;;8.29;73.61;101662.73;1737412;80;21130;-67
2021/01/03 08:12:46;;;;;;;7.42;4.08;;;;;;;8.31;73.69;101657.09;1749183;82;21127;-64
2021/01/03 08:15:28;;;;;;;6.25;4.17;;;;;;;8.33;73.76;101655.38;1746046;80;21170;-67
2021/01/03 08:18:29;;;;;;;5.35;4.33;;;;;;;8.37;73.73;101650.19;1739004;81;21110;-67
2021/01/03 08:21:06;;;;;;;5.40;4.20;;;;;;;8.40;73.70;101650.24;1709936;83;21182;-68
2021/01/03 08:23:37;;;;;;;5.35;4.20;;;;;;;8.44;73.67;101656.00;1726864;82;21186;-69
2021/01/03 08:26:22;;;;;;;6.62;4.22;;;;;;;8.45;73.63;101659.08;1705230;83;21230;-69
2021/01/03 08:29:10;;;;;;;5.20;4.20;;;;;;;8.47;73.41;101662.62;1700664;83;21635;-68
2021/01/03 08:31:43;;;;;;;6.08;4.58;;;;;;;8.48;73.42;101664.38;1720066;83;21625;-68
2021/01/03 08:34:18;;;;;;;5.35;3.95;;;;;;;8.50;73.37;101661.39;1717955;82;21585;-66
2021/01/03 08:36:46;;;;;;;5.10;4.08;;;;;;;8.58;73.40;101658.88;1712854;81;21568;-66
2021/01/03 08:39:14;;;;;;;4.95;3.95;;;;;;;8.65;72.99;101649.36;1699542;84;21303;-67
2021/01/03 08:42:02;;;;;;;7.75;4.67;;;;;;;8.69;72.94;101644.62;1699829;83;21196;-68
2021/01/03 08:44:42;;;;;;;6.60;4.87;;;;;;;8.67;73.13;101641.08;1722501;83;21194;-67
2021/01/03 08:47:12;;;;;;;6.50;4.50;;;;;;;8.77;72.84;101637.34;1700630;81;21182;-68
2021/01/03 08:49:40;;;;;;;5.85;4.53;;;;;;;8.61;73.29;101635.31;1699633;84;21275;-67
2021/01/03 08:52:22;;;;;;;5.50;4.47;;;;;;;8.58;73.37;101636.17;1705928;82;21157;-67
2021/01/03 08:55:18;;;;;;;5.40;4.12;;;;;;;8.55;73.49;101641.77;1718620;82;21123;-67
2021/01/03 08:57:54;;;;;;;5.20;4.05;;;;;;;8.50;73.63;101643.44;1717507;83;21316;-67
2021/01/03 09:00:25;;;;;;;8.10;3.80;;;;;;;8.51;73.77;101640.86;1717110;82;21107;-68
2021/01/03 09:02:58;;;;;;;5.80;3.70;;;;;;;8.51;73.50;101636.02;1668108;83;21180;-68
2021/01/03 09:05:30;;;;;;;6.03;4.05;;;;;;;8.53;73.55;101633.89;1684532;85;21187;-67
2021/01/03 09:07:58;;;;;;;5.20;4.35;;;;;;;8.56;73.59;101632.63;1684470;85;21215;-67
2021/01/03 09:10:39;;;;;;;7.17;3.87;;;;;;;8.52;73.62;101633.84;1672796;85;21485;-68
2021/01/03 09:13:17;;;;;;;;;;;;;;;8.45;73.74;101636.34;1677111;85;21598;-69
2021/01/03 09:15:46;;;;;;;6.80;3.42;;;;;;;8.51;73.58;101633.39;1679602;85;20194;-68
2021/01/03 09:18:30;;;;;;;7.08;3.47;;;;;;;8.52;73.29;101637.78;1679534;85;21313;-68
2021/01/03 09:21:08;;;;;;;6.55;3.08;;;;;;;8.45;73.35;101639.41;1667810;85;21630;-69
2021/01/03 09:23:39;;;;;;;5.85;3.55;;;;;;;8.38;73.53;101646.30;1679974;85;21313;-68
2021/01/03 09:26:07;;;;;;;3.72;2.87;;;;;;;8.39;73.46;101649.34;1679806;85;21725;-68
2021/01/03 09:28:39;;;;;;;5.53;3.47;;;;;;;8.40;73.40;101650.24;1678194;84;21641;-69
2021/01/03 09:31:18;;;;;;;4.85;3.58;;;;;;;8.38;72.94;101650.65;1667797;85;21125;-68
2021/01/03 09:33:53;;;;;;;15.78;3.50;;;;;;;8.28;73.15;101645.67;1687871;83;21308;-69
2021/01/03 09:36:44;;;;;;;4.75;2.90;;;;;;;8.26;73.26;101642.14;1722529;83;21146;-70
2021/01/03 09:39:54;;;;;;;5.42;3.33;;;;;;;8.25;73.35;101636.00;1718395;82;21152;-68
2021/01/03 09:43:02;;;;;;;6.83;3.40;;;;;;;8.23;73.38;101621.10;1722145;83;21269;-67
2021/01/03 09:45:59;;;;;;;4.53;3.50;;;;;;;8.25;73.36;101620.70;1722058;83;21578;-67
2021/01/03 09:48:36;;;;;;;7.28;3.50;;;;;;;8.26;73.46;101618.09;1815093;77;22136;-66
2021/01/03 09:51:15;;;;;;;7.12;4.05;;;;;;;8.23;73.25;101609.30;1751719;81;21553;-67
2021/01/03 09:53:45;;;;;;;4.97;3.67;;;;;;;8.24;73.30;101608.00;1764090;81;21534;-67
2021/01/03 09:56:32;;;;;;;4.60;3.75;;;;;;;8.23;73.36;101600.13;1734226;81;21288;-67
2021/01/03 09:59:14;;;;;;;4.60;3.70;;;;;;;8.29;73.50;101601.54;1750772;81;21236;-67
2021/01/03 10:01:44;;;;;;;4.67;3.77;;;;;;;8.32;73.38;101597.22;1762111;81;21137;-67
2021/01/03 10:04:27;;;;;;;8.65;3.77;;;;;;;8.36;73.29;101593.33;1761562;81;21622;-68
2021/01/03 10:07:11;;;;;;;6.45;4.00;;;;;;;8.39;73.59;101592.07;1739693;81;21150;-68
2021/01/03 10:09:38;;;;;;;4.30;3.60;;;;;;;8.45;73.39;101586.48;1761932;81;21567;-69
2021/01/03 10:12:39;;;;;;;7.92;4.25;;;;;;;8.50;73.43;101576.11;1752193;81;21613;-68
2021/01/03 10:15:26;;;;;;;6.15;4.53;;;;;;;8.52;73.34;101573.50;1753379;81;21589;-69
2021/01/03 10:18:01;;;;;;;4.67;4.12;;;;;;;8.56;73.25;101565.71;1759074;81;21174;-67
2021/01/03 10:20:46;;;;;;;4.80;4.15;;;;;;;8.60;73.27;101562.69;1761936;81;21165;-68
2021/01/03 10:23:34;;;;;;;8.20;4.08;;;;;;;8.70;73.09;101560.66;1760359;80;21106;-68
2021/01/03 10:26:05;;;;;;;4.62;3.72;;;;;;;8.71;73.09;101558.91;1728261;82;21160;-68
2021/01/03 10:28:32;;;;;;;;;;;;;;;8.74;72.97;101555.91;1764283;81;21573;-68
2021/01/03 10:31:00;;;;;;;6.75;3.58;;;;;;;8.75;72.86;101548.90;1751063;80;20142;-66
2021/01/03 10:33:28;;;;;;;4.80;3.55;;;;;;;8.69;72.93;101546.19;1759358;81;21601;-66
2021/01/03 10:35:56;;;;;;;4.67;3.62;;;;;;;8.63;72.87;101546.55;1754129;81;21288;-67
2021/01/03 10:38:24;;;;;;;5.30;4.28;;;;;;;8.67;72.54;101541.34;1761931;81;21153;-67
2021/01/03 10:47:31;;;;;;;4.08;3.27;;;;;;;8.83;71.78;101516.21;1826045;77;22135;-65
2021/01/03 10:49:58;;;;;;;6.97;3.10;;;;;;;8.78;71.68;101524.00;1778842;80;21144;-64
2021/01/03 10:52:26;;;;;;;5.20;3.25;;;;;;;8.76;71.60;101517.86;1734525;81;21279;-66
2021/01/03 10:54:54;;;;;;;9.43;3.40;;;;;;;8.72;71.52;101514.73;1744601;81;21150;-65
2021/01/03 10:57:21;;;;;;;4.33;2.83;;;;;;;8.68;71.51;101515.13;1750161;81;21598;-65
2021/01/03 10:59:51;;;;;;;9.48;2.98;;;;;;;8.62;71.68;101518.98;1743834;81;21154;-66
2021/01/03 11:02:39;;;;;;;3.47;2.70;;;;;;;8.63;71.60;101517.67;1731794;83;21186;-65
2021/01/03 11:05:10;;;;;;;5.12;2.98;;;;;;;8.60;71.39;101518.97;1725599;82;21616;-66
2021/01/03 11:07:38;;;;;;;5.85;2.65;;;;;;;8.54;71.34;101516.67;1736741;82;21293;-66
2021/01/03 11:10:08;;;;;;;5.70;2.95;;;;;;;8.51;71.39;101518.84;1752622;81;21137;-66
2021/01/03 11:12:36;;;;;;;4.83;3.00;;;;;;;8.51;71.42;101512.28;1734421;81;21185;-66
2021/01/03 11:15:06;;;;;;;11.30;3.58;;;;;;;8.37;71.96;101517.70;1700503;83;21214;-67
2021/01/03 11:17:35;;;;;;;6.58;3.80;;;;;;;8.32;71.80;101515.89;1726865;83;21127;-65
2021/01/03 11:20:06;;;;;;;7.25;3.98;;;;;;;8.22;71.69;101517.91;1733744;83;21191;-66
2021/01/03 11:22:34;;;;;;;8.38;3.60;;;;;;;8.22;71.51;101515.29;1733966;83;21215;-66
2021/01/03 11:25:05;;;;;;;5.75;3.85;;;;;;;8.26;71.42;101510.99;1732552;83;21325;-66
2021/01/03 11:27:33;;;;;;;4.63;3.43;;;;;;;8.26;71.42;101509.69;1720161;83;21198;-66
2021/01/03 11:30:02;;;;;;;5.92;3.85;;;;;;;8.29;71.52;101503.17;1733709;82;21603;-67
2021/01/03 11:32:30;;;;;;;6.70;4.85;;;;;;;8.35;71.54;101511.14;1733578;83;21814;-66
2021/01/03 11:34:57;;;;;;;6.00;3.85;;;;;;;8.37;71.54;101508.52;1743961;81;21246;-66
2021/01/03 11:37:27;;;;;;;5.28;4.20;;;;;;;8.42;71.57;101501.16;1761235;81;21114;-66
2021/01/03 11:39:55;;;;;;;6.30;4.80;;;;;;;8.36;71.38;101505.03;1761206;81;21591;-66
2021/01/03 11:42:36;;;;;;;9.90;5.90;;;;;;;8.33;71.57;101499.30;1747374;81;21569;-68
2021/01/03 11:45:29;;;;;;;7.30;5.03;;;;;;;8.31;71.60;101492.27;1763951;80;21142;-67
2021/01/03 11:47:59;;;;;;;6.75;5.87;;;;;;;8.31;71.59;101493.14;1647498;85;21164;-66
2021/01/03 11:50:27;;;;;;;;;;;;;;;8.34;71.63;101491.88;1702992;84;21142;-67
2021/01/03 11:52:57;;;;;;;7.40;5.72;;;;;;;8.33;71.61;101487.48;1707269;84;20161;-66
2021/01/03 11:55:25;;;;;;;7.40;5.83;;;;;;;8.36;71.59;101497.58;1664636;85;21298;-66
2021/01/03 11:57:56;;;;;;;9.98;5.55;;;;;;;8.36;71.41;101493.23;1702208;84;21589;-66
2021/01/03 12:00:26;;;;;;;7.47;5.15;;;;;;;8.32;71.19;101490.11;1737609;82;21134;-65
2021/01/03 12:02:53;;;;;;;8.55;5.47;;;;;;;8.26;71.02;101498.75;1733248;81;21140;-66
2021/01/03 12:05:22;;;;;;;8.85;5.75;;;;;;;8.23;71.22;101497.38;1734127;82;21612;-66
2021/01/03 12:07:51;;;;;;;7.25;5.75;;;;;;;8.25;71.31;101505.30;1735018;82;21458;-66
2021/01/03 12:10:19;;;;;;;11.22;5.72;;;;;;;8.30;71.21;101500.56;1735912;82;21601;-66
2021/01/03 12:12:46;;;;;;;7.85;5.33;;;;;;;8.28;71.09;101497.03;1730372;81;21166;-67
2021/01/03 12:15:14;;;;;;;7.17;5.67;;;;;;;8.25;71.25;101493.05;1731004;83;21307;-66
2021/01/03 12:17:42;;;;;;;8.33;5.67;;;;;;;8.25;71.42;101493.48;1731099;83;21632;-66
2021/01/03 12:20:12;;;;;;;9.68;6.03;;;;;;;8.27;71.34;101498.33;1731435;83;21319;-65
2021/01/03 12:22:39;;;;;;;7.67;5.62;;;;;;;8.26;71.36;101500.50;1732929;82;21169;-65